Carmel, Maine
Current Conditions -  °F | °C
As of 12:53 PM on Monday 26 Jan 2015 (Local Time) from KBGR Reporting Station
Broken Clouds Broken Clouds  
Wind Chill:   Ceiling: 20000
Heat Index: 11°   Visibility: 10mi
Dew Point: -6°   Wind: 6mph
Humidity: 47%   Direction: 50°NE
Pressure: 30.2"   Gusts: NA
Location:  44.8°N, 69.05°W
Report Text: KBGR 261753Z 05005KT 10SM BKN200 M12/M21 A3020 RMK AO2 SLP232 4/004 T11171211 11117 21228
Loading
Personal Weather Stations






























Interactive Weather Map New forecast layout! Learn more

10-Day Weather Forecast

Advertisements
Track Severe Weather on mobile